createdAt,value
2023-02-17T08:41:45.859Z,5.60
2023-02-17T08:46:39.792Z,5.90
2023-02-17T08:51:36.769Z,6.20
2023-02-17T08:56:31.883Z,6.60
2023-02-17T09:01:27.067Z,7.10
2023-02-17T09:06:21.521Z,7.70
2023-02-17T09:11:19.894Z,8.40
2023-02-17T09:16:14.042Z,9.00
2023-02-17T09:21:12.020Z,9.50
2023-02-17T09:26:07.298Z,9.80
2023-02-17T09:31:01.213Z,10.10
2023-02-17T09:35:55.121Z,10.40
2023-02-17T09:40:51.530Z,10.90
2023-02-17T09:45:51.203Z,11.30
2023-02-17T09:50:49.705Z,11.40
2023-02-17T09:55:45.994Z,11.50
2023-02-17T10:00:45.896Z,11.70
2023-02-17T10:05:44.522Z,12.00
2023-02-17T10:10:45.949Z,12.20
2023-02-17T10:15:46.332Z,12.40
2023-02-17T10:20:43.419Z,12.90
2023-02-17T10:25:51.765Z,13.50
2023-02-17T10:30:57.530Z,14.00
2023-02-17T10:35:53.276Z,14.50
2023-02-17T10:40:49.099Z,15.10
2023-02-17T10:45:45.452Z,15.50
2023-02-17T10:50:43.596Z,16.00
2023-02-17T10:55:40.142Z,16.60
2023-02-17T11:00:34.482Z,16.60
2023-02-17T11:05:30.796Z,16.20
2023-02-17T11:10:29.088Z,16.00
2023-02-17T11:15:25.895Z,16.10
2023-02-17T11:20:35.440Z,16.20
2023-02-17T11:25:33.253Z,16.20
2023-02-17T11:30:28.146Z,16.00
2023-02-17T11:35:28.521Z,16.20
2023-02-17T11:40:27.494Z,16.60
2023-02-17T11:45:24.805Z,16.90
2023-02-17T11:50:40.855Z,16.80
2023-02-17T11:55:44.705Z,17.20
2023-02-17T12:00:51.497Z,17.90
2023-02-17T12:05:55.127Z,18.30
2023-02-17T12:11:03.062Z,18.30
2023-02-17T12:16:10.239Z,18.10
2023-02-17T12:21:10.629Z,18.00
2023-02-17T12:26:12.571Z,18.10
2023-02-17T12:31:18.730Z,18.10
2023-02-17T12:36:14.301Z,17.90
2023-02-17T12:41:13.120Z,18.00
2023-02-17T12:46:13.075Z,18.40
2023-02-17T12:51:10.977Z,18.50
2023-02-17T12:56:24.831Z,18.30
2023-02-17T13:01:23.273Z,18.30
2023-02-17T13:06:26.782Z,18.80
2023-02-17T13:11:28.868Z,19.10
2023-02-17T13:16:24.468Z,18.80
2023-02-17T13:21:28.769Z,18.40
2023-02-17T13:26:32.581Z,18.40
2023-02-17T13:31:28.967Z,18.50
2023-02-17T13:36:35.255Z,18.40
2023-02-17T13:41:30.586Z,18.20
2023-02-17T13:46:26.221Z,17.80
2023-02-17T13:51:29.236Z,17.70
2023-02-17T13:56:28.447Z,17.50
2023-02-17T14:01:27.413Z,17.70
2023-02-17T14:06:28.659Z,17.70
2023-02-17T14:11:24.583Z,17.50
2023-02-17T14:16:31.808Z,17.30
2023-02-17T14:21:28.130Z,17.00
2023-02-17T14:26:30.360Z,16.80
2023-02-17T14:31:25.460Z,16.50
2023-02-17T14:36:32.940Z,16.40
2023-02-17T14:41:27.480Z,16.10
2023-02-17T14:46:21.339Z,16.00
2023-02-17T14:51:16.352Z,15.80
2023-02-17T14:56:16.827Z,15.70
2023-02-17T15:01:12.877Z,15.60
2023-02-17T15:06:12.809Z,15.50
2023-02-17T15:11:07.615Z,15.30
2023-02-17T15:16:02.854Z,15.20
2023-02-17T15:20:56.548Z,15.20
2023-02-17T15:25:51.121Z,15.00
2023-02-17T15:30:54.589Z,14.80
2023-02-17T15:35:53.682Z,14.70
2023-02-17T15:40:47.459Z,14.70
2023-02-17T15:45:41.042Z,14.40
2023-02-17T15:50:34.925Z,14.40
2023-02-17T15:55:30.276Z,14.10
2023-02-17T16:00:26.729Z,14.00
2023-02-17T16:05:22.013Z,13.70
2023-02-17T16:10:17.885Z,13.50
2023-02-17T16:15:16.750Z,13.40
2023-02-17T16:20:17.240Z,13.10
2023-02-17T16:25:11.406Z,12.80
2023-02-17T16:30:16.944Z,12.70
2023-02-17T16:35:16.906Z,12.50
2023-02-17T16:40:17.408Z,12.40
2023-02-17T16:45:16.841Z,12.10
